METAR Data
IDs: Format: Raw Decoded Include TAF

Data at: 2109 UTC 01 Dec 2021

KRWL 012053Z AUTO 23018G30KT 10SM CLR 12/M04 A3029 RMK AO2 PK WND 25033/2039 SLP215 60000 T01221039 56013